Time;durP1;ratioP1;P1;durP2;ratioP2;P2;SDS_P1;SDS_P2;PMS_P1;PMS_P2;Temp;Humidity;BMP_temperature;BMP_pressure;BME280_temperature;BME280_humidity;BME280_pressure;Samples;Min_cycle;Max_cycle;Signal;HPM_P1;HPM_P2
2022/04/26 03:37:33;;;;;;;1.30;0.40;;;;;;;23.59;63.44;101516.38;5093889;28;19915;-63
2022/04/26 03:39:59;;;;;;;1.50;0.35;;;;;;;23.59;63.82;101508.13;5094348;28;20020;-63
2022/04/26 03:42:24;;;;;;;1.05;0.52;;;;;;;23.55;63.30;101504.88;5093759;28;20103;-63
2022/04/26 03:44:49;;;;;;;0.85;0.35;;;;;;;23.61;63.42;101509.63;5093894;28;20120;-63
2022/04/26 03:47:15;;;;;;;0.70;0.15;;;;;;;23.58;63.50;101507.28;5094177;28;20032;-63
2022/04/26 03:49:40;;;;;;;0.95;0.32;;;;;;;23.57;62.75;101519.31;5093733;28;20379;-63
2022/04/26 03:52:06;;;;;;;0.40;0.25;;;;;;;23.61;62.59;101519.78;5093875;28;20028;-63
2022/04/26 03:54:31;;;;;;;1.90;0.63;;;;;;;23.56;63.16;101531.28;5093418;28;20379;-63
2022/04/26 03:56:58;;;;;;;0.88;0.30;;;;;;;23.59;63.30;101527.34;5092518;28;20201;-63
2022/04/26 03:59:23;;;;;;;0.93;0.10;;;;;;;23.52;63.05;101535.47;5093112;28;20491;-63
2022/04/26 04:01:48;;;;;;;1.42;0.65;;;;;;;23.65;62.96;101534.81;5093574;28;20040;-64
2022/04/26 04:04:14;;;;;;;1.30;0.20;;;;;;;23.78;63.43;101540.50;5093503;28;20032;-64
2022/04/26 04:06:40;;;;;;;1.13;0.13;;;;;;;23.82;62.45;101535.47;5092139;28;20107;-64
2022/04/26 04:09:06;;;;;;;1.17;0.30;;;;;;;23.90;61.87;101543.63;5093531;28;20035;-63
2022/04/26 04:11:31;;;;;;;0.80;0.40;;;;;;;23.95;62.44;101541.13;5093172;28;20443;-62
2022/04/26 04:13:57;;;;;;;0.65;0.35;;;;;;;23.99;62.09;101547.94;5093386;28;20056;-63
2022/04/26 04:16:22;;;;;;;0.22;0.20;;;;;;;23.99;61.58;101536.94;5093080;28;20065;-63
2022/04/26 04:21:32;;;;;;;0.65;0.25;;;;;;;24.07;62.15;101538.75;5093392;28;20119;-63
2022/04/26 04:23:58;;;;;;;0.95;0.65;;;;;;;24.12;61.86;101548.09;5093222;28;20110;-62
2022/04/26 04:26:23;;;;;;;0.20;0.10;;;;;;;24.13;61.26;101544.31;5092963;28;20023;-64
2022/04/26 04:28:49;;;;;;;1.25;0.40;;;;;;;24.12;61.24;101548.09;5093168;28;20546;-63
2022/04/26 04:31:14;;;;;;;0.43;0.20;;;;;;;24.14;61.76;101551.50;5092614;28;20114;-63
2022/04/26 04:33:40;;;;;;;0.65;0.25;;;;;;;24.20;62.30;101549.91;5092961;28;20023;-64
2022/04/26 04:36:05;;;;;;;1.02;0.25;;;;;;;24.17;62.21;101545.63;5091815;28;20024;-63
2022/04/26 04:38:31;;;;;;;0.80;0.30;;;;;;;24.16;61.97;101554.06;5091495;28;20027;-63
2022/04/26 04:40:57;;;;;;;0.82;0.32;;;;;;;24.19;61.62;101560.06;5092889;28;20023;-63
2022/04/26 04:43:22;;;;;;;1.45;0.30;;;;;;;24.23;62.34;101544.88;5092785;28;20024;-63
2022/04/26 04:45:48;;;;;;;1.30;0.30;;;;;;;24.25;62.00;101545.53;5092920;28;20459;-63
2022/04/26 04:48:14;;;;;;;0.88;0.28;;;;;;;24.30;62.00;101551.31;5092769;28;20258;-64
2022/04/26 04:50:39;;;;;;;0.75;0.20;;;;;;;24.29;62.08;101560.59;5093008;28;20028;-63
2022/04/26 04:53:05;;;;;;;0.47;0.15;;;;;;;24.30;63.23;101555.97;5094360;28;20046;-62
2022/04/26 04:55:31;;;;;;;0.40;0.20;;;;;;;24.28;62.10;101558.88;5093453;28;20024;-64
2022/04/26 04:57:56;;;;;;;0.60;0.40;;;;;;;24.35;62.77;101563.63;5091389;28;20020;-63
2022/04/26 05:00:21;;;;;;;0.73;0.13;;;;;;;24.32;61.95;101564.00;5092349;28;20046;-64
2022/04/26 05:02:47;;;;;;;0.77;0.38;;;;;;;24.36;62.33;101560.69;5092674;28;20024;-63
2022/04/26 05:05:12;;;;;;;0.65;0.25;;;;;;;24.32;62.03;101562.09;5092644;28;20035;-65
2022/04/26 05:07:38;;;;;;;1.75;0.20;;;;;;;24.37;62.72;101561.56;5092624;28;20478;-63
2022/04/26 05:10:05;;;;;;;1.35;0.30;;;;;;;24.38;62.08;101564.09;5092679;28;20035;-63
2022/04/26 05:12:30;;;;;;;0.88;0.10;;;;;;;24.36;61.57;101565.34;5091152;28;20342;-62
2022/04/26 05:14:56;;;;;;;0.98;0.50;;;;;;;24.37;62.15;101572.53;5092930;28;20435;-63
2022/04/26 05:17:21;;;;;;;0.25;0.20;;;;;;;24.40;62.41;101561.16;5092369;28;20479;-62
2022/04/26 05:19:46;;;;;;;0.65;0.20;;;;;;;24.43;62.25;101567.09;5092442;28;20024;-62
2022/04/26 05:22:12;;;;;;;0.55;0.22;;;;;;;24.42;61.87;101565.41;5092495;28;20029;-63
2022/04/26 05:24:54;;;;;;;0.43;0.22;;;;;;;24.43;61.88;101575.34;5092339;28;20027;-63
2022/04/26 05:27:28;;;;;;;0.55;0.22;;;;;;;24.41;61.77;101568.34;5094357;28;20031;-63
2022/04/26 05:29:54;;;;;;;0.30;0.20;;;;;;;24.43;61.78;101580.00;5092351;28;20020;-64
2022/04/26 05:32:21;;;;;;;1.02;0.35;;;;;;;24.47;62.14;101573.06;5092566;28;20032;-63
2022/04/26 05:34:47;;;;;;;1.15;0.30;;;;;;;24.44;62.18;101573.47;5092384;28;20073;-63
2022/04/26 05:37:12;;;;;;;1.35;0.35;;;;;;;24.46;62.96;101574.09;5092357;28;20032;-63
2022/04/26 05:39:37;;;;;;;0.73;0.30;;;;;;;24.50;62.17;101584.50;5092257;28;20035;-63
2022/04/26 05:42:03;;;;;;;0.55;0.30;;;;;;;24.49;63.01;101584.72;5093824;28;20463;-63
2022/04/26 05:44:28;;;;;;;1.88;0.22;;;;;;;24.46;62.30;101587.84;5096119;28;20028;-62
2022/04/26 05:46:53;;;;;;;1.50;0.68;;;;;;;24.51;62.38;101597.22;5094952;28;20115;-63
2022/04/26 05:49:18;;;;;;;0.95;0.40;;;;;;;24.52;61.40;101598.06;5095131;28;20463;-65
2022/04/26 05:51:44;;;;;;;0.28;0.20;;;;;;;24.50;62.55;101590.00;5081528;28;20054;-64
2022/04/26 05:54:09;;;;;;;0.47;0.20;;;;;;;24.52;62.39;101592.56;5082561;28;20028;-63
2022/04/26 05:56:34;;;;;;;1.00;0.20;;;;;;;24.50;62.70;101595.50;5089297;28;20031;-63
2022/04/26 05:58:59;;;;;;;1.40;0.43;;;;;;;24.55;63.68;101594.94;5074940;28;20040;-63
2022/04/26 06:01:25;;;;;;;1.10;0.25;;;;;;;24.55;62.44;101589.44;5088912;28;20467;-64
2022/04/26 06:03:50;;;;;;;1.00;0.20;;;;;;;24.56;62.53;101593.91;5083249;28;20034;-63
2022/04/26 06:06:15;;;;;;;1.33;0.25;;;;;;;24.56;62.50;101603.00;5096260;28;20069;-63
2022/04/26 06:08:41;;;;;;;1.77;0.38;;;;;;;24.54;62.20;101596.00;5092116;28;20016;-63
2022/04/26 06:11:06;;;;;;;0.75;0.20;;;;;;;24.59;60.16;101594.34;5079442;28;20051;-64
2022/04/26 06:13:32;;;;;;;1.75;0.47;;;;;;;24.26;51.79;101595.84;5081913;28;20020;-69
2022/04/26 06:15:57;;;;;;;0.60;0.20;;;;;;;24.22;51.76;101589.88;5078873;28;20028;-66
2022/04/26 06:18:22;;;;;;;0.47;0.10;;;;;;;24.25;53.90;101592.22;5082388;28;20016;-65
2022/04/26 06:20:48;;;;;;;0.32;0.05;;;;;;;22.80;59.75;101581.69;5086020;28;20028;-67
2022/04/26 06:23:13;;;;;;;0.20;0.10;;;;;;;21.26;65.15;101595.00;5079044;28;20115;-69
2022/04/26 06:25:39;;;;;;;0.75;0.20;;;;;;;21.45;68.83;101598.41;5093171;28;20020;-67
2022/04/26 06:28:06;;;;;;;0.20;0.00;;;;;;;21.71;68.29;101599.03;5075757;28;20020;-67
2022/04/26 06:30:31;;;;;;;0.43;0.10;;;;;;;21.95;68.64;101594.50;5078113;28;20028;-67
2022/04/26 06:32:56;;;;;;;0.30;0.10;;;;;;;22.11;69.64;101605.41;5095107;28;20016;-65
2022/04/26 06:35:22;;;;;;;0.40;0.20;;;;;;;22.30;67.96;101598.63;5095033;28;20445;-67
2022/04/26 06:37:48;;;;;;;0.10;0.00;;;;;;;22.43;68.54;101601.66;5091287;28;20709;-66
2022/04/26 06:40:14;;;;;;;0.50;0.10;;;;;;;22.51;69.61;101610.69;5081667;28;20099;-67
2022/04/26 06:42:39;;;;;;;0.30;0.10;;;;;;;22.56;68.19;101614.78;5082557;28;20043;-66
2022/04/26 06:45:05;;;;;;;0.65;0.10;;;;;;;22.62;67.55;101609.41;5082855;28;20032;-66
2022/04/26 06:47:30;;;;;;;0.10;0.00;;;;;;;22.82;67.42;101609.81;5092023;28;20056;-63
2022/04/26 06:49:55;;;;;;;0.50;0.20;;;;;;;23.51;64.26;101610.56;5079904;28;20024;-68
2022/04/26 06:52:20;;;;;;;1.17;0.20;;;;;;;23.65;64.69;101609.78;5073797;28;20446;-67
2022/04/26 06:54:46;;;;;;;0.50;0.20;;;;;;;23.72;64.06;101623.63;5074810;28;20039;-67
2022/04/26 06:57:11;;;;;;;0.75;0.30;;;;;;;23.76;64.43;101613.09;5077393;28;20516;-67
2022/04/26 06:59:38;;;;;;;0.38;0.20;;;;;;;23.82;64.19;101623.31;5076476;28;20036;-67
2022/04/26 07:02:04;;;;;;;1.00;0.30;;;;;;;23.86;64.83;101624.69;5076127;28;20074;-68
2022/04/26 07:04:29;;;;;;;0.30;0.10;;;;;;;23.86;64.84;101630.16;5078476;28;20043;-68
2022/04/26 07:06:54;;;;;;;0.90;0.47;;;;;;;23.98;64.34;101628.63;5074478;28;20024;-68
2022/04/26 07:09:20;;;;;;;1.15;0.30;;;;;;;24.03;63.69;101626.19;5074191;28;20021;-69
2022/04/26 07:11:45;;;;;;;0.93;0.43;;;;;;;24.15;63.31;101630.13;5080666;28;20383;-68
2022/04/26 07:14:11;;;;;;;0.85;0.40;;;;;;;24.29;62.83;101626.56;5088461;28;20051;-71
2022/04/26 07:16:36;;;;;;;0.43;0.20;;;;;;;24.44;62.44;101628.44;5083489;28;20119;-71
2022/04/26 07:19:02;;;;;;;0.85;0.30;;;;;;;24.38;61.64;101637.44;5081121;28;20525;-69
2022/04/26 07:21:27;;;;;;;3.13;0.30;;;;;;;24.43;61.34;101638.56;5084601;28;20028;-69
2022/04/26 07:23:53;;;;;;;0.73;0.22;;;;;;;24.46;61.87;101637.31;5086449;28;20035;-69
2022/04/26 07:26:18;;;;;;;1.08;0.30;;;;;;;24.54;60.94;101645.47;5087534;28;20475;-69
2022/04/26 07:28:43;;;;;;;0.85;0.20;;;;;;;24.59;59.38;101640.25;5094307;28;20035;-69
2022/04/26 07:31:08;;;;;;;1.73;0.30;;;;;;;24.66;60.05;101649.41;5108785;28;20023;-68
2022/04/26 07:36:19;;;;;;;1.65;0.40;;;;;;;24.66;60.79;101654.91;5083357;28;20042;-68
2022/04/26 07:38:45;;;;;;;0.57;0.15;;;;;;;24.71;59.57;101649.69;5078581;28;20035;-68
2022/04/26 07:41:11;;;;;;;1.08;0.35;;;;;;;24.72;60.61;101654.16;5082662;28;20024;-68
2022/04/26 07:43:36;;;;;;;1.55;0.35;;;;;;;24.71;60.38;101651.59;5090420;28;20036;-68
2022/04/26 07:46:02;;;;;;;0.47;0.40;;;;;;;24.74;59.88;101659.44;5084280;28;20028;-68
2022/04/26 07:48:27;;;;;;;1.55;0.20;;;;;;;24.72;60.68;101659.66;5080888;28;20073;-68
2022/04/26 07:50:53;;;;;;;0.60;0.22;;;;;;;24.75;60.23;101659.25;5084316;28;20024;-69
2022/04/26 07:53:18;;;;;;;0.60;0.40;;;;;;;24.79;60.69;101666.06;5090675;28;20387;-68
2022/04/26 07:55:43;;;;;;;1.45;0.30;;;;;;;24.72;60.53;101670.66;5084872;28;20027;-68
2022/04/26 07:58:10;;;;;;;0.63;0.30;;;;;;;24.76;61.06;101666.44;5079140;28;20055;-68
2022/04/26 08:00:35;;;;;;;1.00;0.20;;;;;;;24.71;60.90;101674.44;5081362;28;20054;-68
2022/04/26 08:03:02;;;;;;;0.50;0.25;;;;;;;24.79;60.69;101673.47;5082904;28;20479;-68
2022/04/26 08:05:29;;;;;;;0.25;0.10;;;;;;;24.75;60.60;101670.25;5076051;28;20024;-68
2022/04/26 08:07:54;;;;;;;1.88;0.32;;;;;;;24.79;60.90;101673.47;5082106;28;20036;-68
2022/04/26 08:10:19;;;;;;;0.50;0.30;;;;;;;24.82;60.24;101660.16;5079794;28;20022;-68
2022/04/26 08:12:45;;;;;;;1.05;0.32;;;;;;;24.82;60.56;101686.81;5101394;28;20641;-68
2022/04/26 08:15:12;;;;;;;0.20;0.10;;;;;;;24.84;60.55;101687.47;5084667;28;20111;-68
2022/04/26 08:17:37;;;;;;;0.38;0.20;;;;;;;24.83;61.39;101685.75;5075267;28;20055;-68
2022/04/26 08:20:04;;;;;;;0.55;0.22;;;;;;;24.84;60.90;101690.22;5072290;28;20024;-68
2022/04/26 08:22:30;;;;;;;0.98;0.30;;;;;;;24.82;60.90;101693.16;5074583;28;20025;-68
2022/04/26 08:27:40;;;;;;;1.92;0.20;;;;;;;24.84;60.63;101680.06;5072144;28;20372;-68
2022/04/26 08:30:06;;;;;;;1.55;0.57;;;;;;;24.86;60.70;101679.91;5072217;28;20020;-68
2022/04/26 08:32:40;;;;;;;0.28;0.10;;;;;;;24.80;60.79;101689.75;5070800;28;20558;-68
2022/04/26 08:35:06;;;;;;;0.30;0.15;;;;;;;24.86;61.13;101683.50;5072290;28;20021;-68
2022/04/26 08:37:34;;;;;;;0.30;0.10;;;;;;;24.84;60.73;101680.06;5072328;28;20047;-69
2022/04/26 08:39:59;;;;;;;1.15;0.52;;;;;;;24.82;61.67;101675.81;5082424;28;20028;-69
2022/04/26 08:42:35;;;;;;;0.10;0.10;;;;;;;24.89;61.14;101682.25;5087806;28;20024;-69
2022/04/26 08:45:01;;;;;;;0.10;0.10;;;;;;;24.87;60.61;101689.84;5075980;28;20047;-68
2022/04/26 08:52:53;;;;;;;0.77;0.10;;;;;;;24.87;60.42;101696.22;5096512;28;20069;-68
2022/04/26 08:55:20;;;;;;;0.65;0.20;;;;;;;24.89;60.56;101694.09;5087437;28;20032;-69
2022/04/26 08:57:45;;;;;;;0.55;0.20;;;;;;;24.89;60.51;101694.09;5082999;28;20051;-69
2022/04/26 09:00:11;;;;;;;1.13;0.40;;;;;;;24.93;61.04;101701.97;5080354;28;20491;-69
2022/04/26 09:02:38;;;;;;;0.10;0.10;;;;;;;24.88;60.15;101703.41;5077998;28;20032;-68
2022/04/26 09:05:15;;;;;;;0.40;0.20;;;;;;;24.88;59.83;101706.16;5082833;28;20470;-68
2022/04/26 09:07:45;;;;;;;0.90;0.22;;;;;;;24.94;60.25;101706.41;5076605;28;20106;-69
2022/04/26 09:10:16;;;;;;;1.10;0.20;;;;;;;24.88;61.02;101703.41;5071693;28;20012;-69
2022/04/26 09:13:04;;;;;;;2.17;0.43;;;;;;;24.91;60.66;101718.66;5082429;28;20381;-68
2022/04/26 09:15:56;;;;;;;0.93;0.20;;;;;;;24.92;60.17;101714.88;5091515;28;20540;-69
2022/04/26 09:18:30;;;;;;;0.77;0.20;;;;;;;24.90;60.29;101711.47;5096723;28;20111;-68
2022/04/26 09:21:05;;;;;;;1.70;0.88;;;;;;;24.95;59.56;101716.38;5090059;28;20363;-69
2022/04/26 09:23:32;;;;;;;0.93;0.28;;;;;;;24.95;59.23;101713.63;5086408;28;20475;-68
2022/04/26 09:26:07;;;;;;;0.45;0.20;;;;;;;24.90;60.78;101717.81;5080435;28;20028;-68
2022/04/26 09:28:33;;;;;;;1.15;0.20;;;;;;;24.95;60.46;101727.38;5102383;28;20031;-68
2022/04/26 09:30:58;;;;;;;0.30;0.20;;;;;;;24.97;59.56;101728.03;5088063;28;20028;-69
2022/04/26 09:33:38;;;;;;;2.85;0.40;;;;;;;24.97;59.25;101730.78;5084034;28;20028;-68
2022/04/26 09:36:06;;;;;;;0.95;0.30;;;;;;;24.95;60.23;101741.13;5076818;28;20030;-69
2022/04/26 09:38:32;;;;;;;0.75;0.40;;;;;;;24.95;59.52;101752.13;5087634;28;20063;-68
2022/04/26 09:41:10;;;;;;;1.15;0.28;;;;;;;24.94;60.33;101745.78;5075982;28;20031;-68
2022/04/26 09:43:37;;;;;;;0.60;0.10;;;;;;;24.91;59.68;101751.66;5075703;28;20024;-68
2022/04/26 09:46:04;;;;;;;1.05;0.30;;;;;;;24.95;58.94;101741.13;5086618;28;20489;-68
2022/04/26 09:48:35;;;;;;;2.60;0.73;;;;;;;24.98;59.72;101747.09;5081052;28;20103;-68
2022/04/26 09:51:05;;;;;;;0.73;0.13;;;;;;;24.96;59.89;101756.59;5089662;28;20027;-68
2022/04/26 09:53:31;;;;;;;2.45;0.50;;;;;;;24.98;59.81;101751.75;5075309;28;20024;-68
2022/04/26 09:55:57;;;;;;;0.35;0.13;;;;;;;25.01;59.36;101756.88;5076029;28;20044;-68
2022/04/26 09:58:24;;;;;;;0.50;0.20;;;;;;;24.97;59.28;101744.53;5073650;28;20105;-68
2022/04/26 10:00:51;;;;;;;1.40;0.20;;;;;;;24.99;59.90;101743.28;5074983;28;20032;-68
2022/04/26 10:03:25;;;;;;;0.45;0.10;;;;;;;24.99;59.74;101748.78;5074185;28;20047;-68
2022/04/26 10:05:59;;;;;;;0.25;0.20;;;;;;;24.99;59.30;101756.19;5075713;28;20030;-68
2022/04/26 10:08:28;;;;;;;1.00;0.40;;;;;;;24.99;59.68;101750.69;5074159;28;20382;-68
2022/04/26 10:10:54;;;;;;;0.60;0.20;;;;;;;25.01;59.85;101754.13;5075583;28;20013;-68
2022/04/26 10:13:32;;;;;;;0.45;0.20;;;;;;;24.98;59.85;101754.50;5076119;28;20024;-68
2022/04/26 10:16:00;;;;;;;0.20;0.20;;;;;;;25.02;58.91;101748.44;5077431;28;20406;-68
2022/04/26 10:18:30;;;;;;;0.63;0.20;;;;;;;25.01;60.04;101751.38;5075256;28;20387;-68
2022/04/26 10:20:55;;;;;;;0.22;0.13;;;;;;;24.99;59.70;101753.44;5093689;28;20019;-65
2022/04/26 10:23:20;;;;;;;0.80;0.25;;;;;;;24.96;60.42;101760.19;5081915;28;20033;-66
2022/04/26 10:26:10;;;;;;;1.38;0.17;;;;;;;24.99;59.43;101754.28;5074122;28;20375;-67
2022/04/26 10:29:10;;;;;;;2.60;0.52;;;;;;;24.98;59.98;101768.25;5074465;28;20494;-68
2022/04/26 10:31:38;;;;;;;0.65;0.20;;;;;;;25.02;58.53;101766.84;5071969;28;20048;-68
2022/04/26 10:34:31;;;;;;;1.80;0.47;;;;;;;25.02;59.45;101764.94;5075139;28;20031;-68
2022/04/26 10:37:06;;;;;;;0.63;0.38;;;;;;;24.99;59.47;101764.44;5075143;28;20475;-68
2022/04/26 10:39:39;;;;;;;0.98;0.20;;;;;;;25.06;59.83;101773.69;5073522;28;20028;-67
2022/04/26 10:42:31;;;;;;;0.77;0.30;;;;;;;25.02;59.19;101769.59;5073818;28;20060;-68
2022/04/26 10:45:05;;;;;;;0.77;0.25;;;;;;;25.02;59.10;101777.84;5073979;28;20032;-68
2022/04/26 10:47:30;;;;;;;1.77;0.28;;;;;;;24.95;58.97;101785.13;5074870;28;20033;-68
2022/04/26 10:49:58;;;;;;;0.50;0.20;;;;;;;25.02;59.27;101780.59;5074898;28;20028;-67
2022/04/26 10:52:26;;;;;;;0.32;0.17;;;;;;;25.04;58.19;101773.03;5075087;28;20072;-68
2022/04/26 10:54:55;;;;;;;0.43;0.13;;;;;;;25.05;58.96;101792.09;5077667;28;20064;-68
2022/04/26 10:57:32;;;;;;;0.90;0.15;;;;;;;25.02;59.10;101780.59;5085723;28;20062;-67
2022/04/26 11:00:02;;;;;;;1.08;0.20;;;;;;;25.05;59.32;101785.72;5084818;28;20040;-68
2022/04/26 11:02:35;;;;;;;0.30;0.10;;;;;;;25.06;59.33;101781.94;5088454;28;20375;-68
2022/04/26 11:05:07;;;;;;;1.17;0.20;;;;;;;25.01;60.12;101781.63;5082890;28;20481;-67
2022/04/26 11:07:32;;;;;;;0.95;0.40;;;;;;;25.05;59.07;101788.50;5090500;28;20059;-68
2022/04/26 11:09:59;;;;;;;1.20;0.47;;;;;;;25.07;58.68;101789.13;5079398;28;20635;-68
2022/04/26 11:12:29;;;;;;;0.43;0.20;;;;;;;25.05;58.09;101791.25;5094561;28;20035;-68
2022/04/26 11:14:57;;;;;;;1.88;0.20;;;;;;;25.05;58.17;101796.75;5091148;28;20759;-68
2022/04/26 11:17:24;;;;;;;1.48;0.40;;;;;;;25.06;59.76;101798.44;5075222;28;20471;-68
2022/04/26 11:19:54;;;;;;;1.13;0.28;;;;;;;25.06;59.26;101796.53;5083761;28;20032;-68
2022/04/26 11:22:21;;;;;;;0.38;0.20;;;;;;;25.04;58.96;101801.41;5073973;28;20020;-68
2022/04/26 11:30:24;;;;;;;0.60;0.40;;;;;;;25.05;59.88;101807.75;5089537;28;20120;-67
2022/04/26 11:32:50;;;;;;;1.02;0.45;;;;;;;25.03;59.07;101807.09;5076010;28;20423;-67
2022/04/26 11:35:17;;;;;;;0.28;0.15;;;;;;;25.02;58.35;101811.72;5082861;28;20080;-67
2022/04/26 11:37:50;;;;;;;1.45;0.45;;;;;;;24.94;57.58;101810.94;5089808;28;20059;-67
2022/04/26 11:40:27;;;;;;;0.40;0.20;;;;;;;24.99;58.95;101808.47;5088289;28;20036;-67
2022/04/26 11:42:53;;;;;;;0.65;0.20;;;;;;;24.97;58.31;101811.41;5091562;28;20048;-63
2022/04/26 11:45:18;;;;;;;0.57;0.20;;;;;;;25.02;58.32;101819.09;5097802;28;20024;-67
2022/04/26 11:47:48;;;;;;;0.85;0.20;;;;;;;25.02;58.90;101819.09;5092480;28;20364;-67
2022/04/26 11:50:21;;;;;;;0.68;0.20;;;;;;;25.05;58.70;101810.50;5089099;28;20020;-67
2022/04/26 11:52:49;;;;;;;1.25;0.22;;;;;;;25.04;58.51;101830.81;5091185;28;20024;-67
2022/04/26 11:55:26;;;;;;;0.20;0.20;;;;;;;25.02;58.89;101824.59;5090693;28;20024;-67
2022/04/26 11:57:53;;;;;;;0.55;0.20;;;;;;;25.04;59.20;101828.06;5086787;28;20020;-67
2022/04/26 12:00:21;;;;;;;0.70;0.25;;;;;;;25.05;59.75;101819.59;5090254;28;20155;-67
2022/04/26 12:02:48;;;;;;;0.63;0.20;;;;;;;25.01;59.07;101822.91;5092439;28;20103;-67
2022/04/26 12:05:19;;;;;;;0.40;0.15;;;;;;;25.08;58.48;101830.22;5091084;28;20073;-67
2022/04/26 12:07:44;;;;;;;0.52;0.20;;;;;;;25.05;58.42;101833.34;5088886;28;20062;-67
2022/04/26 12:10:32;;;;;;;0.32;0.20;;;;;;;25.07;58.33;101844.16;5088184;28;20047;-67
2022/04/26 12:13:03;;;;;;;0.52;0.28;;;;;;;25.11;59.55;101839.97;5089409;28;20027;-67
2022/04/26 12:15:35;;;;;;;0.68;0.15;;;;;;;25.09;58.97;101836.56;5088215;28;20325;-67
2022/04/26 12:18:14;;;;;;;0.77;0.30;;;;;;;25.09;58.83;101842.06;5090484;28;20056;-66
2022/04/26 12:21:15;;;;;;;0.73;0.10;;;;;;;25.11;57.69;101823.47;5090088;28;20032;-67
2022/04/26 12:23:40;;;;;;;0.70;0.28;;;;;;;25.08;58.73;101824.72;5068074;28;20032;-67
2022/04/26 12:26:07;;;;;;;0.55;0.20;;;;;;;25.05;58.33;101829.75;5069338;28;20051;-67
2022/04/26 12:28:43;;;;;;;1.20;0.20;;;;;;;25.09;59.31;101836.56;5063495;28;20032;-67
2022/04/26 12:31:25;;;;;;;2.10;0.20;;;;;;;25.11;58.27;101845.47;5066126;28;20098;-66
2022/04/26 12:34:12;;;;;;;0.80;0.30;;;;;;;25.09;58.91;101842.06;5067805;28;20051;-67
2022/04/26 12:36:54;;;;;;;0.77;0.17;;;;;;;25.09;58.64;101842.06;5067935;28;20040;-67
2022/04/26 12:39:28;;;;;;;1.10;0.30;;;;;;;25.05;59.35;101843.50;5081263;28;20344;-67
2022/04/26 12:41:56;;;;;;;0.93;0.32;;;;;;;25.11;59.04;101845.47;5051911;28;20032;-68
2022/04/26 12:44:22;;;;;;;0.47;0.10;;;;;;;25.11;59.56;101837.22;5066874;28;20032;-67
2022/04/26 12:52:44;;;;;;;0.85;0.10;;;;;;;25.09;59.39;101831.06;5065703;28;20121;-68
2022/04/26 12:55:10;;;;;;;0.40;0.35;;;;;;;25.10;59.22;101832.78;5050414;28;20589;-68
2022/04/26 12:57:50;;;;;;;0.52;0.20;;;;;;;25.13;59.09;101838.72;5065971;28;20043;-68
2022/04/26 13:00:17;;;;;;;0.63;0.10;;;;;;;25.12;58.35;101833.44;5089278;28;20040;-68
2022/04/26 13:02:42;;;;;;;0.65;0.10;;;;;;;25.15;59.68;101841.28;5086011;28;20174;-68
2022/04/26 13:05:08;;;;;;;1.98;0.20;;;;;;;24.90;53.69;101849.00;5088785;28;20491;-66
2022/04/26 13:07:33;;;;;;;2.38;0.20;;;;;;;24.85;51.49;101849.53;5089775;28;20036;-70
2022/04/26 13:09:58;;;;;;;0.15;0.10;;;;;;;24.59;46.13;101832.69;5090724;28;20024;-68
2022/04/26 13:12:24;;;;;;;0.20;0.10;;;;;;;24.51;45.13;101832.75;5088798;28;20109;-69
2022/04/26 13:14:50;;;;;;;0.32;0.10;;;;;;;24.39;44.93;101840.63;5088286;28;20507;-68
2022/04/26 13:17:16;;;;;;;4.88;0.95;;;;;;;24.54;44.93;101848.91;5091149;28;20107;-67
2022/04/26 13:19:41;;;;;;;0.20;0.00;;;;;;;24.63;45.81;101846.91;5085103;28;20051;-68
2022/04/26 13:22:06;;;;;;;0.82;0.13;;;;;;;24.59;45.43;101851.94;5090151;28;20047;-65
2022/04/26 13:24:32;;;;;;;4.45;0.20;;;;;;;24.63;47.78;101847.75;5090805;28;20128;-69
2022/04/26 13:26:57;;;;;;;0.13;0.10;;;;;;;24.73;45.90;101848.34;5088192;28;20019;-63
2022/04/26 13:29:22;;;;;;;0.40;0.13;;;;;;;24.68;48.04;101845.28;5093362;28;20032;-68
2022/04/26 13:31:48;;;;;;;1.55;0.05;;;;;;;24.66;46.46;101852.00;5091208;28;20348;-68
2022/04/26 13:34:13;;;;;;;2.35;0.05;;;;;;;24.49;48.31;101856.84;5091920;28;20024;-69
2022/04/26 13:36:38;;;;;;;0.35;0.13;;;;;;;24.63;50.76;101853.25;5090122;28;20390;-66
2022/04/26 13:39:03;;;;;;;2.38;0.35;;;;;;;24.61;51.37;101860.84;5089292;28;20103;-69
2022/04/26 13:41:31;;;;;;;1.38;0.00;;;;;;;24.50;48.71;101864.03;5081365;28;20028;-65
2022/04/26 13:43:56;;;;;;;0.00;0.00;;;;;;;24.34;48.79;101869.69;5074237;28;20024;-67
2022/04/26 13:46:23;;;;;;;0.35;0.10;;;;;;;24.35;48.89;101871.41;5072536;28;20100;-66
2022/04/26 13:48:49;;;;;;;0.22;0.10;;;;;;;24.34;48.50;101875.19;5079747;28;20027;-67
2022/04/26 13:51:15;;;;;;;1.00;0.10;;;;;;;24.27;46.79;101870.41;5086078;28;20421;-66
2022/04/26 13:53:41;;;;;;;0.45;0.10;;;;;;;24.32;48.61;101882.78;5089967;28;20115;-65
2022/04/26 13:56:07;;;;;;;0.00;0.00;;;;;;;24.35;46.74;101876.91;5090979;28;20028;-66
2022/04/26 13:58:32;;;;;;;0.38;0.00;;;;;;;24.34;49.65;101869.69;5088510;28;20028;-66
2022/04/26 14:00:57;;;;;;;0.10;0.03;;;;;;;24.32;47.75;101894.63;5091075;28;20375;-65
2022/04/26 14:03:23;;;;;;;0.00;0.00;;;;;;;24.32;47.11;101899.25;5092962;28;20084;-65
2022/04/26 14:05:48;;;;;;;0.20;0.10;;;;;;;24.33;47.58;101889.97;5086946;28;20035;-65
2022/04/26 14:08:14;;;;;;;1.15;0.10;;;;;;;24.32;47.84;101899.25;5093981;28;20217;-65
2022/04/26 14:10:39;;;;;;;0.55;0.00;;;;;;;24.33;47.80;101889.97;5093489;28;20315;-65
2022/04/26 14:13:05;;;;;;;0.10;0.00;;;;;;;24.33;48.26;101895.47;5081517;28;20089;-65
2022/04/26 14:23:42;;;;;;;0.20;0.10;;;;;;;24.33;47.55;101889.97;5076347;28;20398;-64
2022/04/26 14:26:07;;;;;;;0.00;0.00;;;;;;;24.35;48.05;101888.75;5075424;28;20029;-65
2022/04/26 14:28:33;;;;;;;0.30;0.10;;;;;;;24.28;48.58;101888.63;5076914;28;20522;-64
2022/04/26 14:30:58;;;;;;;1.00;0.20;;;;;;;24.30;46.96;101902.19;5076133;28;20035;-64
2022/04/26 14:33:23;;;;;;;0.10;0.10;;;;;;;24.33;47.13;101887.22;5082104;28;20025;-64
2022/04/26 14:35:48;;;;;;;0.65;0.20;;;;;;;24.30;46.87;101885.72;5086165;28;20036;-64
2022/04/26 14:38:14;;;;;;;0.10;0.00;;;;;;;24.27;46.61;101889.66;5084635;28;20043;-64
2022/04/26 14:40:39;;;;;;;0.35;0.30;;;;;;;24.29;47.29;101886.75;5115301;28;20628;-65
2022/04/26 14:43:07;;;;;;;0.45;0.20;;;;;;;24.26;46.97;101893.44;5099281;28;20036;-64
2022/04/26 14:45:32;;;;;;;0.88;0.10;;;;;;;24.25;47.72;101897.22;5083362;28;20024;-64
2022/04/26 14:48:00;;;;;;;0.10;0.10;;;;;;;24.26;48.19;101898.09;5074912;28;20448;-64
2022/04/26 14:50:26;;;;;;;0.52;0.10;;;;;;;24.36;47.48;101895.13;5080433;28;20094;-65
2022/04/26 14:52:53;;;;;;;0.10;0.00;;;;;;;24.25;48.42;101902.72;5090865;28;20139;-64
2022/04/26 14:55:18;;;;;;;0.30;0.10;;;;;;;24.27;47.96;101902.53;5093959;28;20435;-65
2022/04/26 14:57:43;;;;;;;1.92;0.17;;;;;;;24.33;48.31;101906.47;5087177;28;20016;-65
2022/04/26 15:00:09;;;;;;;0.20;0.10;;;;;;;24.36;48.07;101917.97;5084699;28;20048;-63
2022/04/26 15:02:38;;;;;;;0.20;0.17;;;;;;;24.35;48.02;101918.13;5082879;28;20036;-66
2022/04/26 15:05:08;;;;;;;0.38;0.00;;;;;;;24.31;48.18;101920.41;5084575;28;20028;-64
2022/04/26 15:10:18;;;;;;;0.03;0.03;;;;;;;24.27;48.25;101930.88;5089133;28;20035;-65
2022/04/26 15:18:12;;;;;;;0.68;0.35;;;;;;;24.35;46.77;101943.72;5086715;28;20035;-65
2022/04/26 15:20:38;;;;;;;0.55;0.00;;;;;;;24.34;47.55;101952.16;5089504;28;20020;-65
2022/04/26 15:23:04;;;;;;;2.25;0.10;;;;;;;24.31;47.28;101947.88;5082879;28;20024;-65
2022/04/26 15:25:32;;;;;;;0.10;0.05;;;;;;;24.29;48.16;101947.22;5074380;28;20047;-64
2022/04/26 15:27:57;;;;;;;0.93;0.25;;;;;;;24.31;46.17;101953.38;5083924;28;20031;-64
2022/04/26 15:30:22;;;;;;;1.48;0.10;;;;;;;24.35;48.04;101948.34;5090474;28;20028;-64
2022/04/26 15:32:48;;;;;;;0.68;0.20;;;;;;;24.32;48.05;101955.09;5089229;28;20475;-64
2022/04/26 15:35:14;;;;;;;0.30;0.10;;;;;;;24.25;46.99;101956.84;5094174;28;20031;-64
2022/04/26 15:37:39;;;;;;;1.08;0.20;;;;;;;24.30;47.93;101960.75;5087945;28;20450;-65
2022/04/26 15:40:05;;;;;;;0.32;0.10;;;;;;;24.34;48.34;101957.63;5072599;28;20380;-66
2022/04/26 15:42:31;;;;;;;0.13;0.05;;;;;;;24.29;47.80;101967.31;5075965;28;20256;-65
2022/04/26 15:44:56;;;;;;;0.30;0.10;;;;;;;24.54;49.62;101964.38;5080918;28;20114;-65